Custer, SD

5:33 AM MST on December 06, 2016 (GMT -0700)
Custer County | | Change Station

Elev 5600 ft 43.73 °N, 103.62 °W | Updated 40 minutes ago

Clear
Clear
7 °F
Feels Like -12 °F
N
17
Wind Variable Wind from WNW
Gusts 25 mph

Today
High -- | Low -- °F
--% Chance of Precip.
Yesterday
High -- | Low -- °F
Precip. -- in
Pressure 30.03 in
Visibility 10.0 miles
Clouds Clear
Windchill -12 °F
Dew Point -2 °F
Humidity 67%
Rainfall 0.00 in
Snow Depth Not available.
7:14 AM 4:17 PM
Waxing Crescent, 41% visible
METAR KCUT 061153Z AUTO 29015G22KT 10SM CLR M14/M19 A2978 RMK AO2 SLP167 T11391189 11122 21139 51004
Pressure 30.03 in
Visibility 10.0 miles
Clouds Clear
Windchill -12 °F
Dew Point -2 °F
Humidity 67%
Rainfall 0.00 in
Snow Depth Not available.
7:14 AM 4:17 PM
Waxing Crescent, 41% visible
METAR KCUT 061153Z AUTO 29015G22KT 10SM CLR M14/M19 A2978 RMK AO2 SLP167 T11391189 11122 21139 51004

10-Day Weather Forecast

Almanac

Astronomy

Dec. 06, 2016 Rise Set
Actual Time
Civil Twilight
Nautical Twilight
Astronomical Twilight
Moon
Length of Visible Light
Length of Day
Tomorrow will be .
, % of the Moon is Illuminated

Today's Extremes

State Highs State Lows

Community

WunderPhotos

Upload Photos

1,955,936 photos uploaded!

WunderBlog® & News

Nearby

Air Quality

  Air Quality AQ Index Pollutant
Not available.

Snow Depth

Station Depth Elevation

Earthquake Activity

City Distance Mag. Time & Date
Minimum magnitude displayed is 2.5.

Coastal Water Temperatures

Place Temperature

Stations

Nearby Weather Stations

Station Location Temp. Windchill Dew Point Humidity Wind Precip. Elev Updated Type
                   

Watches & Warnings

There are currently no watches in effect.